sensor_id;sensor_type;location;lat;lon;timestamp;temperature;humidity
63960;DHT22;50136;51.374;0.096;2023-05-14T00:09:01;11.30;99.90
63960;DHT22;50136;51.374;0.096;2023-05-14T00:19:04;11.30;99.90
63960;DHT22;50136;51.374;0.096;2023-05-14T00:29:07;11.10;99.90
63960;DHT22;50136;51.374;0.096;2023-05-14T00:39:10;11.10;99.90
63960;DHT22;50136;51.374;0.096;2023-05-14T00:49:12;10.80;99.90
63960;DHT22;50136;51.374;0.096;2023-05-14T00:59:15;10.60;99.90
63960;DHT22;50136;51.374;0.096;2023-05-14T01:09:24;10.60;99.90
63960;DHT22;50136;51.374;0.096;2023-05-14T01:19:36;10.60;99.90
63960;DHT22;50136;51.374;0.096;2023-05-14T01:29:43;10.50;99.90
63960;DHT22;50136;51.374;0.096;2023-05-14T01:39:46;10.60;99.90
63960;DHT22;50136;51.374;0.096;2023-05-14T01:49:50;10.60;99.90
63960;DHT22;50136;51.374;0.096;2023-05-14T01:59:52;10.40;99.90
63960;DHT22;50136;51.374;0.096;2023-05-14T02:09:55;10.50;99.90
63960;DHT22;50136;51.374;0.096;2023-05-14T02:19:57;10.30;99.90
63960;DHT22;50136;51.374;0.096;2023-05-14T02:30:01;10.30;99.90
63960;DHT22;50136;51.374;0.096;2023-05-14T02:40:03;10.20;99.90
63960;DHT22;50136;51.374;0.096;2023-05-14T02:50:08;10.10;99.90
63960;DHT22;50136;51.374;0.096;2023-05-14T03:00:11;9.90;99.90
63960;DHT22;50136;51.374;0.096;2023-05-14T03:10:16;9.70;99.90
63960;DHT22;50136;51.374;0.096;2023-05-14T03:20:18;10.00;99.90
63960;DHT22;50136;51.374;0.096;2023-05-14T03:30:22;10.00;99.90
63960;DHT22;50136;51.374;0.096;2023-05-14T03:40:24;10.00;99.90
63960;DHT22;50136;51.374;0.096;2023-05-14T03:50:28;9.70;99.90
63960;DHT22;50136;51.374;0.096;2023-05-14T04:00:30;9.80;99.90
63960;DHT22;50136;51.374;0.096;2023-05-14T04:10:33;9.90;99.90
63960;DHT22;50136;51.374;0.096;2023-05-14T04:20:35;9.90;99.90
63960;DHT22;50136;51.374;0.096;2023-05-14T04:30:38;9.90;99.90
63960;DHT22;50136;51.374;0.096;2023-05-14T04:40:40;9.80;99.90
63960;DHT22;50136;51.374;0.096;2023-05-14T04:50:44;9.80;99.90
63960;DHT22;50136;51.374;0.096;2023-05-14T05:00:46;9.80;99.90
63960;DHT22;50136;51.374;0.096;2023-05-14T05:10:49;9.80;99.90
63960;DHT22;50136;51.374;0.096;2023-05-14T05:20:51;9.70;99.90
63960;DHT22;50136;51.374;0.096;2023-05-14T05:30:54;9.80;99.90
63960;DHT22;50136;51.374;0.096;2023-05-14T05:40:56;9.70;99.90
63960;DHT22;50136;51.374;0.096;2023-05-14T05:51:00;9.80;99.90
63960;DHT22;50136;51.374;0.096;2023-05-14T06:01:02;9.90;99.90
63960;DHT22;50136;51.374;0.096;2023-05-14T06:11:05;9.80;99.90
63960;DHT22;50136;51.374;0.096;2023-05-14T06:21:07;9.70;99.90
63960;DHT22;50136;51.374;0.096;2023-05-14T06:31:10;9.90;99.90
63960;DHT22;50136;51.374;0.096;2023-05-14T06:41:12;10.10;99.90
63960;DHT22;50136;51.374;0.096;2023-05-14T06:51:16;10.00;99.90
63960;DHT22;50136;51.374;0.096;2023-05-14T07:01:18;10.30;99.90
63960;DHT22;50136;51.374;0.096;2023-05-14T07:11:21;10.40;99.90
63960;DHT22;50136;51.374;0.096;2023-05-14T07:21:23;10.50;99.90
63960;DHT22;50136;51.374;0.096;2023-05-14T07:31:27;10.50;99.90
63960;DHT22;50136;51.374;0.096;2023-05-14T07:41:29;10.50;99.90
63960;DHT22;50136;51.374;0.096;2023-05-14T07:51:32;11.00;99.90
63960;DHT22;50136;51.374;0.096;2023-05-14T08:01:34;11.30;99.90
63960;DHT22;50136;51.374;0.096;2023-05-14T08:11:41;11.80;99.90
63960;DHT22;50136;51.374;0.096;2023-05-14T08:21:43;11.80;99.90
63960;DHT22;50136;51.374;0.096;2023-05-14T08:31:48;12.00;99.90
63960;DHT22;50136;51.374;0.096;2023-05-14T08:41:50;12.20;99.90
63960;DHT22;50136;51.374;0.096;2023-05-14T08:51:55;12.80;99.90
63960;DHT22;50136;51.374;0.096;2023-05-14T09:02:00;15.00;99.90
63960;DHT22;50136;51.374;0.096;2023-05-14T09:12:05;15.40;99.90
63960;DHT22;50136;51.374;0.096;2023-05-14T09:22:08;15.10;99.90
63960;DHT22;50136;51.374;0.096;2023-05-14T09:32:13;16.80;99.90
63960;DHT22;50136;51.374;0.096;2023-05-14T09:42:15;19.90;99.90
63960;DHT22;50136;51.374;0.096;2023-05-14T09:52:19;20.50;99.90
63960;DHT22;50136;51.374;0.096;2023-05-14T10:02:22;20.90;99.90
63960;DHT22;50136;51.374;0.096;2023-05-14T10:12:31;21.10;99.90
63960;DHT22;50136;51.374;0.096;2023-05-14T10:22:33;21.60;99.90
63960;DHT22;50136;51.374;0.096;2023-05-14T10:32:37;23.00;99.90
63960;DHT22;50136;51.374;0.096;2023-05-14T10:42:45;23.70;99.70
63960;DHT22;50136;51.374;0.096;2023-05-14T10:52:48;23.00;99.10
63960;DHT22;50136;51.374;0.096;2023-05-14T11:03:10;23.30;96.60
63960;DHT22;50136;51.374;0.096;2023-05-14T11:13:14;22.60;97.70
63960;DHT22;50136;51.374;0.096;2023-05-14T11:23:16;21.00;99.70
63960;DHT22;50136;51.374;0.096;2023-05-14T11:33:20;22.30;99.40
63960;DHT22;50136;51.374;0.096;2023-05-14T11:43:42;21.70;99.90
63960;DHT22;50136;51.374;0.096;2023-05-14T11:53:50;21.70;98.90
63960;DHT22;50136;51.374;0.096;2023-05-14T12:03:55;21.90;99.70
63960;DHT22;50136;51.374;0.096;2023-05-14T12:14:36;22.10;98.60
63960;DHT22;50136;51.374;0.096;2023-05-14T12:24:38;21.60;99.10
63960;DHT22;50136;51.374;0.096;2023-05-14T12:34:41;21.60;99.10
63960;DHT22;50136;51.374;0.096;2023-05-14T12:44:43;21.70;99.00
63960;DHT22;50136;51.374;0.096;2023-05-14T12:54:47;21.60;96.30
63960;DHT22;50136;51.374;0.096;2023-05-14T13:04:49;21.80;98.00
63960;DHT22;50136;51.374;0.096;2023-05-14T13:14:52;22.10;97.20
63960;DHT22;50136;51.374;0.096;2023-05-14T13:24:54;22.20;94.80
63960;DHT22;50136;51.374;0.096;2023-05-14T13:34:57;21.90;96.00
63960;DHT22;50136;51.374;0.096;2023-05-14T13:44:59;22.40;95.80
63960;DHT22;50136;51.374;0.096;2023-05-14T13:55:03;22.30;94.00
63960;DHT22;50136;51.374;0.096;2023-05-14T14:05:06;22.50;94.80
63960;DHT22;50136;51.374;0.096;2023-05-14T14:15:10;22.50;93.20
63960;DHT22;50136;51.374;0.096;2023-05-14T14:25:12;22.30;93.10
63960;DHT22;50136;51.374;0.096;2023-05-14T14:35:17;22.30;93.30
63960;DHT22;50136;51.374;0.096;2023-05-14T14:45:19;22.80;93.00
63960;DHT22;50136;51.374;0.096;2023-05-14T14:55:22;22.80;92.90
63960;DHT22;50136;51.374;0.096;2023-05-14T15:05:24;22.50;92.60
63960;DHT22;50136;51.374;0.096;2023-05-14T15:15:28;22.00;92.80
63960;DHT22;50136;51.374;0.096;2023-05-14T15:25:30;21.90;93.10
63960;DHT22;50136;51.374;0.096;2023-05-14T15:35:33;22.00;93.30
63960;DHT22;50136;51.374;0.096;2023-05-14T15:45:35;22.00;93.00
63960;DHT22;50136;51.374;0.096;2023-05-14T15:55:39;21.90;93.30
63960;DHT22;50136;51.374;0.096;2023-05-14T16:05:41;22.10;93.30
63960;DHT22;50136;51.374;0.096;2023-05-14T16:15:52;21.80;93.40
63960;DHT22;50136;51.374;0.096;2023-05-14T16:25:54;22.00;93.60
63960;DHT22;50136;51.374;0.096;2023-05-14T16:35:57;22.10;93.60
63960;DHT22;50136;51.374;0.096;2023-05-14T16:46:08;22.10;94.10
63960;DHT22;50136;51.374;0.096;2023-05-14T16:56:11;21.90;93.70
63960;DHT22;50136;51.374;0.096;2023-05-14T17:06:41;22.00;94.20
63960;DHT22;50136;51.374;0.096;2023-05-14T17:16:45;21.60;94.50
63960;DHT22;50136;51.374;0.096;2023-05-14T17:26:47;21.30;95.10
63960;DHT22;50136;51.374;0.096;2023-05-14T17:36:50;20.90;95.50
63960;DHT22;50136;51.374;0.096;2023-05-14T17:46:52;20.60;96.10
63960;DHT22;50136;51.374;0.096;2023-05-14T17:56:56;20.40;96.80
63960;DHT22;50136;51.374;0.096;2023-05-14T18:06:58;20.20;97.40
63960;DHT22;50136;51.374;0.096;2023-05-14T18:17:02;20.10;98.00
63960;DHT22;50136;51.374;0.096;2023-05-14T18:27:04;19.80;99.90
63960;DHT22;50136;51.374;0.096;2023-05-14T18:37:08;19.50;99.90
63960;DHT22;50136;51.374;0.096;2023-05-14T18:47:10;19.20;99.90
63960;DHT22;50136;51.374;0.096;2023-05-14T18:57:13;18.90;99.90
63960;DHT22;50136;51.374;0.096;2023-05-14T19:07:15;18.70;99.90
63960;DHT22;50136;51.374;0.096;2023-05-14T19:17:19;18.30;99.90
63960;DHT22;50136;51.374;0.096;2023-05-14T19:27:21;18.00;99.90
63960;DHT22;50136;51.374;0.096;2023-05-14T19:37:25;17.80;99.90
63960;DHT22;50136;51.374;0.096;2023-05-14T19:47:27;17.60;99.90
63960;DHT22;50136;51.374;0.096;2023-05-14T19:57:30;17.40;99.90
63960;DHT22;50136;51.374;0.096;2023-05-14T20:07:32;17.20;99.90
63960;DHT22;50136;51.374;0.096;2023-05-14T20:17:36;17.00;99.90
63960;DHT22;50136;51.374;0.096;2023-05-14T20:27:39;16.80;99.90
63960;DHT22;50136;51.374;0.096;2023-05-14T20:37:42;16.70;99.90
63960;DHT22;50136;51.374;0.096;2023-05-14T20:47:44;16.60;99.90
63960;DHT22;50136;51.374;0.096;2023-05-14T20:57:47;16.50;99.90
63960;DHT22;50136;51.374;0.096;2023-05-14T21:07:49;16.50;99.90
63960;DHT22;50136;51.374;0.096;2023-05-14T21:17:53;16.40;99.90
63960;DHT22;50136;51.374;0.096;2023-05-14T21:27:55;16.30;99.90
63960;DHT22;50136;51.374;0.096;2023-05-14T21:37:58;16.30;99.90
63960;DHT22;50136;51.374;0.096;2023-05-14T21:48:01;16.30;99.90
63960;DHT22;50136;51.374;0.096;2023-05-14T21:58:05;16.20;99.90
63960;DHT22;50136;51.374;0.096;2023-05-14T22:08:07;16.10;99.90
63960;DHT22;50136;51.374;0.096;2023-05-14T22:18:11;16.00;99.90
63960;DHT22;50136;51.374;0.096;2023-05-14T22:28:13;15.80;99.90
63960;DHT22;50136;51.374;0.096;2023-05-14T22:38:16;15.70;99.90
63960;DHT22;50136;51.374;0.096;2023-05-14T22:48:18;15.70;99.90
63960;DHT22;50136;51.374;0.096;2023-05-14T22:58:21;15.60;99.90
63960;DHT22;50136;51.374;0.096;2023-05-14T23:08:23;15.50;99.90
63960;DHT22;50136;51.374;0.096;2023-05-14T23:18:27;15.40;99.90
63960;DHT22;50136;51.374;0.096;2023-05-14T23:28:29;15.40;99.90
63960;DHT22;50136;51.374;0.096;2023-05-14T23:38:33;15.40;99.90
63960;DHT22;50136;51.374;0.096;2023-05-14T23:48:35;15.40;99.90
63960;DHT22;50136;51.374;0.096;2023-05-14T23:58:38;15.40;99.90
